Unionville, Iowa
Current Conditions -  °F | °C
As of 2:10 AM on Tuesday 27 Jan 2015 (Local Time) from KTVK Reporting Station
Broken Clouds Broken Clouds  
Wind Chill: 29°   Ceiling: 2200
Heat Index: 37°   Visibility: 10mi
Dew Point: 32°   Wind: 13mph
Humidity: 81%   Direction: 350°N
Pressure: 30.03"   Gusts: NA
Location:  40.82°N, 92.7°W
Report Text: KTVK 270810Z AUTO 35011KT 10SM BKN022 03/00 A3003 RMK AO2
Loading
Personal Weather Stations






























Interactive Weather Map New forecast layout! Learn more

10-Day Weather Forecast

Advertisements
Track Severe Weather on mobile